Terminal Aerodrome Forecast
Issued by NWS Cleveland, OH

Home | Current Version | Previous Version | Graphics & Text | Print | Product List | Glossary On
Versions: 1 2 3 4 5 6 7 8 9 10 11 12 13 14 15 16 17 18 19 20 21 22 23
000
FTUS41 KCLE 272200 AAA
TAFCAK
TAF AMD
KCAK 272211Z 2722/2818 31008KT P6SM -SHSN OVC035
      TEMPO 2722/2802 3SM -SHSN OVC025
     FM280700 30008KT P6SM OVC035
     FM281200 25006KT P6SM SCT035 BKN200=

USA.gov is the U.S. government's official web portal to all federal, state and local government web resources and services.